createdAt,value
2018-01-31T01:52:58.509Z,98184.67
2018-01-31T01:55:29.584Z,98188.16
2018-01-31T01:58:00.698Z,98180.84
2018-01-31T02:00:31.779Z,98175.85
2018-01-31T02:03:02.837Z,98177.00
2018-01-31T02:05:34.018Z,98165.77
2018-01-31T02:08:05.112Z,98163.29
2018-01-31T02:10:36.201Z,98160.01
2018-01-31T02:13:07.297Z,98158.05
2018-01-31T02:15:38.404Z,98157.03
2018-01-31T02:18:09.526Z,98152.59
2018-01-31T02:20:40.569Z,98154.01
2018-01-31T02:23:11.682Z,98147.45
2018-01-31T02:25:42.758Z,98142.41
2018-01-31T02:28:13.814Z,98139.03
2018-01-31T02:30:44.934Z,98135.59
2018-01-31T02:33:15.970Z,98126.42
2018-01-31T02:35:47.110Z,98119.52
2018-01-31T02:38:30.444Z,98121.12
2018-01-31T02:41:01.515Z,98106.59
2018-01-31T02:43:32.562Z,98106.66
2018-01-31T02:46:03.700Z,98107.73
2018-01-31T02:48:34.781Z,98096.33
2018-01-31T02:51:05.879Z,98096.37
2018-01-31T02:53:36.951Z,98094.56
2018-01-31T02:56:08.078Z,98076.32
2018-01-31T02:58:39.129Z,98078.44
2018-01-31T03:01:10.231Z,98070.30
2018-01-31T03:03:47.458Z,98071.78
2018-01-31T03:06:18.508Z,98069.30
2018-01-31T03:08:49.567Z,98072.74
2018-01-31T03:11:20.640Z,98070.01
2018-01-31T03:13:51.715Z,98059.83
2018-01-31T03:16:22.811Z,98052.97
2018-01-31T03:18:53.901Z,98046.73
2018-01-31T03:21:25.013Z,98048.25
2018-01-31T03:23:56.074Z,98050.87
2018-01-31T03:26:27.189Z,98043.72
2018-01-31T03:28:58.226Z,98046.19
2018-01-31T03:31:29.300Z,98042.02
2018-01-31T03:34:00.338Z,98047.80
2018-01-31T03:36:31.438Z,98042.75
2018-01-31T03:39:02.558Z,98035.89
2018-01-31T03:41:33.623Z,98034.48
2018-01-31T03:44:04.691Z,98030.50
2018-01-31T03:46:35.784Z,98027.27
2018-01-31T03:49:06.866Z,98029.34
2018-01-31T03:51:37.929Z,98032.39
2018-01-31T03:54:09.002Z,98027.61
2018-01-31T03:56:40.090Z,98027.77
2018-01-31T03:59:11.200Z,98023.62
2018-01-31T04:01:42.315Z,98015.06
2018-01-31T04:04:13.421Z,98011.63
2018-01-31T04:06:44.481Z,98012.30
2018-01-31T04:09:15.550Z,98006.05
2018-01-31T04:11:46.641Z,98003.93
2018-01-31T04:14:17.763Z,97990.67
2018-01-31T04:16:48.851Z,97988.25
2018-01-31T04:19:19.945Z,97991.78
2018-01-31T04:21:51.010Z,97988.16
2018-01-31T04:24:22.061Z,97990.72
2018-01-31T04:26:53.181Z,97986.34
2018-01-31T04:29:24.288Z,97985.03
2018-01-31T04:31:55.355Z,97983.75
2018-01-31T04:34:26.485Z,97974.27
2018-01-31T04:36:57.583Z,97982.80
2018-01-31T04:39:28.727Z,97983.77
2018-01-31T04:41:59.831Z,97988.33
2018-01-31T04:44:30.976Z,97996.00
2018-01-31T04:47:02.038Z,97982.33
2018-01-31T04:49:33.157Z,97973.95
2018-01-31T04:52:04.220Z,97979.48
2018-01-31T04:54:35.331Z,97978.91
2018-01-31T04:57:06.393Z,97985.88
2018-01-31T04:59:37.510Z,97976.24
2018-01-31T05:02:08.597Z,97977.27
2018-01-31T05:04:39.691Z,97965.94
2018-01-31T05:07:11.556Z,97968.57
2018-01-31T05:09:42.643Z,97969.29
2018-01-31T05:12:13.698Z,97961.88
2018-01-31T05:14:44.767Z,97952.84
2018-01-31T05:17:15.842Z,97952.15
2018-01-31T05:19:46.920Z,97948.45
2018-01-31T05:22:17.997Z,97944.73
2018-01-31T05:24:49.147Z,97951.19
2018-01-31T05:27:20.181Z,97952.98
2018-01-31T05:29:51.274Z,97948.19
2018-01-31T05:32:22.347Z,97945.77
2018-01-31T05:34:53.454Z,97947.77
2018-01-31T05:37:24.478Z,97950.20
2018-01-31T05:39:55.638Z,97944.47
2018-01-31T05:42:26.681Z,97937.66
2018-01-31T05:44:57.822Z,97940.77
2018-01-31T05:47:28.905Z,97945.48
2018-01-31T05:50:00.049Z,97942.69
2018-01-31T05:52:31.824Z,97936.16
2018-01-31T05:55:02.886Z,97939.58
2018-01-31T05:57:34.016Z,97934.35
2018-01-31T06:00:05.104Z,97934.16
2018-01-31T06:02:36.226Z,97927.94
2018-01-31T06:05:07.294Z,97924.30
2018-01-31T06:07:38.382Z,97923.40
2018-01-31T06:10:09.471Z,97917.66
2018-01-31T06:12:40.540Z,97911.64
2018-01-31T06:15:11.627Z,97907.52
2018-01-31T06:17:42.769Z,97909.33
2018-01-31T06:20:13.850Z,97902.59
2018-01-31T06:22:44.959Z,97894.76
2018-01-31T06:25:16.036Z,97895.78
2018-01-31T06:27:47.731Z,97893.66
2018-01-31T06:30:18.804Z,97887.55
2018-01-31T06:32:49.915Z,97893.69
2018-01-31T06:35:21.105Z,97901.59
2018-01-31T06:37:52.168Z,97893.77
2018-01-31T06:40:23.230Z,97890.45
2018-01-31T06:42:54.270Z,97883.80
2018-01-31T06:45:25.412Z,97880.61
2018-01-31T06:47:56.607Z,97881.92
2018-01-31T06:50:27.863Z,97877.41
2018-01-31T06:52:58.918Z,97871.77
2018-01-31T06:55:30.090Z,97873.48
2018-01-31T06:58:01.197Z,97874.48
2018-01-31T07:00:32.237Z,97878.70
2018-01-31T07:03:03.327Z,97874.17
2018-01-31T07:05:34.390Z,97873.34
2018-01-31T07:08:05.511Z,97872.75
2018-01-31T07:10:36.586Z,97869.91
2018-01-31T07:13:07.662Z,97870.59
2018-01-31T07:15:38.765Z,97865.88
2018-01-31T07:18:09.932Z,97854.89
2018-01-31T07:20:41.001Z,97858.69
2018-01-31T07:23:12.202Z,97857.66
2018-01-31T07:25:43.263Z,97849.28
2018-01-31T07:28:14.322Z,97850.77
2018-01-31T07:30:45.364Z,97847.91
2018-01-31T07:33:16.494Z,97846.17
2018-01-31T07:35:47.563Z,97847.03
2018-01-31T07:38:18.649Z,97842.47
2018-01-31T07:40:49.861Z,97835.59
2018-01-31T07:43:21.067Z,97831.52
2018-01-31T07:45:52.189Z,97826.85
2018-01-31T07:48:23.233Z,97828.31
2018-01-31T07:50:54.303Z,97822.64
2018-01-31T07:53:25.415Z,97817.80
2018-01-31T07:55:56.502Z,97811.20
2018-01-31T07:58:27.565Z,97813.67
2018-01-31T08:00:58.700Z,97804.86
2018-01-31T08:03:29.777Z,97799.38
2018-01-31T08:06:00.902Z,97792.94
2018-01-31T08:08:32.011Z,97778.92
2018-01-31T08:11:03.108Z,97770.58
2018-01-31T08:13:34.187Z,97765.73
2018-01-31T08:16:05.318Z,97763.34
2018-01-31T08:18:36.395Z,97762.49
2018-01-31T08:21:07.491Z,97760.72
2018-01-31T08:23:38.535Z,97757.61
2018-01-31T08:26:09.676Z,97754.06
2018-01-31T08:28:40.829Z,97746.64
2018-01-31T08:31:11.949Z,97743.36
2018-01-31T08:33:43.097Z,97734.77
2018-01-31T08:36:14.222Z,97737.07
2018-01-31T08:38:45.272Z,97735.65
2018-01-31T08:41:16.413Z,97733.39
2018-01-31T08:43:47.503Z,97731.67
2018-01-31T08:46:18.636Z,97726.03
2018-01-31T08:48:49.690Z,97730.50
2018-01-31T08:51:20.781Z,97728.94
2018-01-31T08:53:51.884Z,97717.70
2018-01-31T08:56:23.102Z,97715.55
2018-01-31T08:58:54.168Z,97693.34
2018-01-31T09:01:25.295Z,97676.00
2018-01-31T09:03:56.316Z,97668.06
2018-01-31T09:06:27.455Z,97657.89
2018-01-31T09:08:58.520Z,97648.92
2018-01-31T09:11:29.652Z,97649.50
2018-01-31T09:14:00.708Z,97637.25
2018-01-31T09:16:31.781Z,97642.91
2018-01-31T09:19:02.836Z,97641.95
2018-01-31T09:21:33.945Z,97630.05
2018-01-31T09:24:05.063Z,97618.50
2018-01-31T09:26:36.124Z,97620.57
2018-01-31T09:29:07.987Z,97619.41
2018-01-31T09:31:39.039Z,97599.78
2018-01-31T09:34:10.151Z,97598.70
2018-01-31T09:36:41.223Z,97592.23
2018-01-31T09:39:12.317Z,97581.45
2018-01-31T09:41:43.418Z,97585.77
2018-01-31T09:44:14.599Z,97596.98
2018-01-31T09:46:45.656Z,97592.82
2018-01-31T09:49:16.714Z,97595.62
2018-01-31T09:51:47.799Z,97596.14
2018-01-31T09:54:18.917Z,97593.67
2018-01-31T09:56:49.959Z,97589.44
2018-01-31T09:59:21.818Z,97589.66
2018-01-31T10:01:52.873Z,97594.41
2018-01-31T10:04:24.026Z,97585.77
2018-01-31T10:06:55.228Z,97575.28
2018-01-31T10:09:26.340Z,97573.05
2018-01-31T10:11:57.386Z,97567.06
2018-01-31T10:14:28.494Z,97561.92
2018-01-31T10:16:59.604Z,97561.95
2018-01-31T10:19:30.702Z,97552.91
2018-01-31T10:22:01.791Z,97556.95
2018-01-31T10:24:32.859Z,97552.41
2018-01-31T10:27:03.986Z,97538.78
2018-01-31T10:29:35.062Z,97535.50
2018-01-31T10:32:06.176Z,97514.53
2018-01-31T10:34:37.246Z,97514.81
2018-01-31T10:37:08.305Z,97499.13
2018-01-31T10:39:39.420Z,97499.15
2018-01-31T10:42:10.547Z,97496.70
2018-01-31T10:44:41.817Z,97485.48
2018-01-31T10:47:12.907Z,97485.48
2018-01-31T10:49:44.204Z,97490.47
2018-01-31T10:52:15.254Z,97477.14
2018-01-31T10:57:28.742Z,97472.97
2018-01-31T10:59:48.674Z,97480.47
2018-01-31T11:02:19.730Z,97473.88
2018-01-31T11:04:50.880Z,97462.69
2018-01-31T11:07:21.955Z,97459.59
2018-01-31T11:09:53.035Z,97453.69
2018-01-31T11:12:24.097Z,97440.07
2018-01-31T11:14:55.216Z,97429.73
2018-01-31T11:17:26.333Z,97420.78
2018-01-31T11:19:57.427Z,97405.41
2018-01-31T11:22:28.549Z,97389.28
2018-01-31T11:25:00.176Z,97378.72
2018-01-31T11:27:31.286Z,97373.22
2018-01-31T11:30:02.499Z,97379.58
2018-01-31T11:32:33.598Z,97373.02
2018-01-31T11:35:04.657Z,97365.64
2018-01-31T11:37:35.786Z,97372.59
2018-01-31T11:40:06.884Z,97364.52
2018-01-31T11:42:37.986Z,97338.89
2018-01-31T11:45:09.077Z,97336.95
2018-01-31T11:47:40.153Z,97335.92
2018-01-31T11:50:11.319Z,97332.56
2018-01-31T11:52:42.385Z,97323.23
2018-01-31T11:55:13.522Z,97324.85
2018-01-31T11:57:44.613Z,97321.48
2018-01-31T12:00:15.838Z,97304.16
2018-01-31T12:02:46.918Z,97296.42
2018-01-31T12:05:18.006Z,97284.20
2018-01-31T12:07:49.051Z,97273.80
2018-01-31T12:10:32.524Z,97256.75
2018-01-31T12:13:16.010Z,97251.75
2018-01-31T12:19:08.821Z,97231.28
2018-01-31T12:21:42.885Z,97223.00
2018-01-31T12:24:26.240Z,97208.95
2018-01-31T12:27:09.739Z,97195.05
2018-01-31T12:29:54.876Z,97190.95
2018-01-31T12:35:43.812Z,97172.13
2018-01-31T12:38:27.109Z,97175.10
2018-01-31T12:40:58.003Z,97174.14
2018-01-31T12:43:28.864Z,97158.20
2018-01-31T12:46:12.204Z,97154.95
2018-01-31T12:48:55.544Z,97150.06
2018-01-31T12:51:53.568Z,97144.10
2018-01-31T12:54:37.056Z,97138.61
2018-01-31T12:57:31.081Z,97128.98
2018-01-31T13:00:14.534Z,97108.98
2018-01-31T13:06:09.324Z,97106.13
2018-01-31T13:08:52.870Z,97099.55
2018-01-31T13:11:36.400Z,97090.25
2018-01-31T13:14:19.815Z,97092.11
2018-01-31T13:17:03.369Z,97076.01
2018-01-31T13:19:46.904Z,97076.31
2018-01-31T13:22:25.956Z,97073.66
2018-01-31T13:25:09.479Z,97062.44
2018-01-31T13:27:59.114Z,97065.34
2018-01-31T13:30:42.538Z,97069.95
2018-01-31T13:33:25.828Z,97055.39
2018-01-31T13:36:09.304Z,97061.52
2018-01-31T13:38:52.764Z,97051.03
2018-01-31T13:41:36.194Z,97043.27
2018-01-31T13:44:19.533Z,97044.02
2018-01-31T13:47:03.108Z,97030.59
2018-01-31T13:49:46.462Z,97019.05
2018-01-31T13:52:29.764Z,97014.63
2018-01-31T13:55:12.970Z,97011.59
2018-01-31T13:57:56.484Z,97010.79
2018-01-31T14:00:39.776Z,97001.86
2018-01-31T14:03:23.125Z,96994.73
2018-01-31T14:09:12.613Z,96983.02
2018-01-31T14:11:56.142Z,96975.28
2018-01-31T14:14:39.465Z,96982.39
2018-01-31T14:17:22.804Z,96980.95
2018-01-31T14:20:06.159Z,96981.45
2018-01-31T14:22:49.414Z,96964.56
2018-01-31T14:25:32.690Z,96952.09
2018-01-31T14:28:16.043Z,96959.94
2018-01-31T14:30:59.534Z,96956.12
2018-01-31T14:36:41.618Z,96944.30
2018-01-31T14:39:12.479Z,96932.34
2018-01-31T14:41:43.275Z,96927.83
2018-01-31T14:44:14.110Z,96916.53
2018-01-31T14:46:44.959Z,96902.31
2018-01-31T14:49:15.771Z,96902.31
2018-01-31T14:51:46.603Z,96915.39
2018-01-31T14:54:17.507Z,96914.07
2018-01-31T14:56:48.358Z,96906.41
2018-01-31T14:59:19.222Z,96900.86
2018-01-31T15:01:50.034Z,96897.05
2018-01-31T15:04:20.958Z,96876.28
2018-01-31T15:06:51.798Z,96870.83
2018-01-31T15:09:22.688Z,96857.20
2018-01-31T15:11:53.531Z,96849.47
2018-01-31T15:14:24.379Z,96866.27
2018-01-31T15:16:55.218Z,96877.02
2018-01-31T15:19:26.128Z,96879.36
2018-01-31T15:21:56.982Z,96878.73
2018-01-31T15:24:27.842Z,96879.81
2018-01-31T15:26:58.781Z,96873.19
2018-01-31T15:29:29.632Z,96876.24
2018-01-31T15:32:00.520Z,96871.38
2018-01-31T15:34:31.415Z,96857.05
2018-01-31T15:37:02.286Z,96859.67
2018-01-31T15:39:33.149Z,96843.13
2018-01-31T15:42:04.055Z,96852.03
2018-01-31T15:44:34.924Z,96848.11
2018-01-31T15:47:05.792Z,96832.97
2018-01-31T15:49:36.642Z,96814.55
2018-01-31T15:52:07.537Z,96799.89
2018-01-31T15:54:38.455Z,96798.80
2018-01-31T15:57:09.345Z,96789.12
2018-01-31T15:59:40.798Z,96779.17
2018-01-31T16:02:11.652Z,96775.28
2018-01-31T16:04:42.560Z,96759.88
2018-01-31T16:07:13.422Z,96749.17
2018-01-31T16:09:44.309Z,96748.70
2018-01-31T16:12:15.179Z,96746.70
2018-01-31T16:14:46.069Z,96740.06
2018-01-31T16:17:17.134Z,96730.63
2018-01-31T16:20:00.407Z,96722.84
2018-01-31T16:22:31.461Z,96723.81
2018-01-31T16:25:03.691Z,96724.23
2018-01-31T16:27:47.126Z,96712.21
2018-01-31T16:30:22.015Z,96699.44
2018-01-31T16:33:05.375Z,96693.64
2018-01-31T16:35:36.439Z,96684.31
2018-01-31T16:38:07.535Z,96682.01
2018-01-31T16:40:38.657Z,96677.16
2018-01-31T16:43:09.798Z,96678.22
2018-01-31T16:45:40.870Z,96681.02
2018-01-31T16:48:11.974Z,96671.10
2018-01-31T16:50:43.039Z,96670.55
2018-01-31T16:53:14.153Z,96681.88
2018-01-31T16:55:45.261Z,96675.69
2018-01-31T16:58:16.336Z,96672.03
2018-01-31T17:00:47.522Z,96660.03
2018-01-31T17:03:18.601Z,96654.07
2018-01-31T17:05:49.658Z,96649.98
2018-01-31T17:08:20.723Z,96643.43
2018-01-31T17:10:51.827Z,96642.38
2018-01-31T17:13:22.906Z,96644.62
2018-01-31T17:15:54.029Z,96638.82
2018-01-31T17:18:25.087Z,96644.36
2018-01-31T17:20:56.162Z,96645.38
2018-01-31T17:23:27.230Z,96639.48
2018-01-31T17:25:58.444Z,96635.39
2018-01-31T17:28:29.495Z,96628.02
2018-01-31T17:31:00.628Z,96637.80
2018-01-31T17:33:31.678Z,96631.73
2018-01-31T17:36:02.819Z,96625.81
2018-01-31T17:38:33.938Z,96617.67
2018-01-31T17:41:05.012Z,96612.27
2018-01-31T17:43:36.103Z,96610.33
2018-01-31T17:46:07.218Z,96600.63
2018-01-31T17:48:38.243Z,96599.30
2018-01-31T17:51:09.314Z,96603.78
2018-01-31T17:53:40.377Z,96600.25
2018-01-31T17:56:11.626Z,96594.09
2018-01-31T17:58:42.712Z,96584.19
2018-01-31T18:01:13.838Z,96577.20
2018-01-31T18:03:44.907Z,96563.38
2018-01-31T18:06:16.052Z,96563.68
2018-01-31T18:08:47.166Z,96564.70
2018-01-31T18:11:18.243Z,96551.27
2018-01-31T18:13:49.288Z,96553.50
2018-01-31T18:16:20.381Z,96551.13
2018-01-31T18:18:51.419Z,96550.38
2018-01-31T18:21:22.499Z,96540.08
2018-01-31T18:23:53.591Z,96539.84
2018-01-31T18:26:24.659Z,96532.37
2018-01-31T18:28:55.724Z,96530.46
2018-01-31T18:31:26.846Z,96520.59
2018-01-31T18:33:57.933Z,96518.52
2018-01-31T18:36:29.065Z,96515.63
2018-01-31T18:39:00.114Z,96512.98
2018-01-31T18:41:31.265Z,96505.62
2018-01-31T18:44:02.341Z,96507.83
2018-01-31T18:46:33.426Z,96501.91
2018-01-31T18:49:04.509Z,96491.66
2018-01-31T18:51:35.670Z,96486.17
2018-01-31T18:54:06.780Z,96487.38
2018-01-31T18:56:37.923Z,96489.78
2018-01-31T18:59:08.956Z,96499.91
2018-01-31T19:01:40.029Z,96508.55
2018-01-31T19:04:11.154Z,96504.80
2018-01-31T19:06:42.180Z,96510.55
2018-01-31T19:09:13.317Z,96507.20
2018-01-31T19:11:44.338Z,96504.86
2018-01-31T19:14:15.413Z,96498.57
2018-01-31T19:16:46.546Z,96495.68
2018-01-31T19:19:17.631Z,96491.11
2018-01-31T19:21:48.717Z,96488.73
2018-01-31T19:24:19.808Z,96486.27
2018-01-31T19:26:50.893Z,96482.62
2018-01-31T19:29:21.998Z,96476.70
2018-01-31T19:31:53.107Z,96474.75
2018-01-31T19:34:24.173Z,96472.13
2018-01-31T19:36:55.283Z,96476.36
2018-01-31T19:39:26.451Z,96470.17
2018-01-31T19:41:57.531Z,96469.63
2018-01-31T19:44:28.636Z,96474.36
2018-01-31T19:46:59.682Z,96471.03
2018-01-31T19:49:30.808Z,96467.98
2018-01-31T19:52:01.902Z,96465.34
2018-01-31T19:54:33.014Z,96464.39
2018-01-31T19:57:04.189Z,96457.87
2018-01-31T19:59:35.267Z,96464.13
2018-01-31T20:02:06.377Z,96452.05
2018-01-31T20:04:37.442Z,96458.81
2018-01-31T20:07:08.487Z,96457.37
2018-01-31T20:09:39.565Z,96447.38
2018-01-31T20:12:10.707Z,96444.61
2018-01-31T20:14:41.819Z,96439.55
2018-01-31T20:17:12.890Z,96442.98
2018-01-31T20:19:43.966Z,96446.03
2018-01-31T20:22:15.062Z,96445.77
2018-01-31T20:24:46.725Z,96441.30
2018-01-31T20:27:17.764Z,96449.05
2018-01-31T20:29:49.027Z,96447.88
2018-01-31T20:32:20.087Z,96445.21
2018-01-31T20:34:51.175Z,96444.16
2018-01-31T20:37:22.255Z,96439.16
2018-01-31T20:39:53.383Z,96435.61
2018-01-31T20:42:24.451Z,96431.06
2018-01-31T20:44:55.598Z,96424.23
2018-01-31T20:47:26.647Z,96421.07
2018-01-31T20:49:57.769Z,96418.70
2018-01-31T20:52:28.871Z,96417.42
2018-01-31T20:55:00.054Z,96416.59
2018-01-31T20:57:31.095Z,96414.52
2018-01-31T21:00:02.196Z,96409.42
2018-01-31T21:02:33.246Z,96405.38
2018-01-31T21:05:04.351Z,96397.59
2018-01-31T21:07:35.434Z,96396.56
2018-01-31T21:10:06.503Z,96396.72
2018-01-31T21:12:37.547Z,96391.86
2018-01-31T21:15:08.679Z,96403.30
2018-01-31T21:17:39.746Z,96406.45
2018-01-31T21:20:10.859Z,96392.12
2018-01-31T21:22:41.965Z,96398.66
2018-01-31T21:25:13.702Z,96388.12
2018-01-31T21:27:44.818Z,96378.52
2018-01-31T21:30:15.918Z,96383.22
2018-01-31T21:32:46.994Z,96386.64
2018-01-31T21:35:18.129Z,96382.53
2018-01-31T21:37:49.202Z,96382.99
2018-01-31T21:40:20.307Z,96376.67
2018-01-31T21:42:51.954Z,96383.52
2018-01-31T21:45:23.667Z,96381.78
2018-01-31T21:47:54.768Z,96384.02
2018-01-31T21:50:25.869Z,96381.67
2018-01-31T21:52:57.031Z,96383.52
2018-01-31T21:55:28.166Z,96383.13
2018-01-31T21:57:59.669Z,96375.89
2018-01-31T22:00:30.698Z,96384.11
2018-01-31T22:03:01.820Z,96373.95
2018-01-31T22:05:32.891Z,96375.36
2018-01-31T22:08:04.024Z,96376.54
2018-01-31T22:10:35.153Z,96386.18
2018-01-31T22:13:06.288Z,96375.03
2018-01-31T22:15:37.335Z,96373.87
2018-01-31T22:18:08.418Z,96364.80
2018-01-31T22:20:39.496Z,96362.17
2018-01-31T22:23:10.584Z,96355.76
2018-01-31T22:25:41.705Z,96358.70
2018-01-31T22:28:12.768Z,96351.08
2018-01-31T22:30:43.874Z,96352.89
2018-01-31T22:33:14.972Z,96364.74
2018-01-31T22:35:46.090Z,96365.17
2018-01-31T22:38:17.232Z,96356.67
2018-01-31T22:40:48.370Z,96355.63
2018-01-31T22:43:19.450Z,96348.52
2018-01-31T22:45:50.520Z,96354.70
2018-01-31T22:48:21.587Z,96358.89
2018-01-31T22:50:52.745Z,96337.21
2018-01-31T22:53:23.836Z,96339.47
2018-01-31T22:55:54.921Z,96343.52
2018-01-31T22:58:25.981Z,96345.25
2018-01-31T23:00:57.100Z,96353.66
2018-01-31T23:03:28.176Z,96356.83
2018-01-31T23:05:59.212Z,96358.14
2018-01-31T23:08:30.288Z,96355.94
2018-01-31T23:11:01.537Z,96354.09
2018-01-31T23:13:32.595Z,96347.66
2018-01-31T23:16:03.687Z,96347.52
2018-01-31T23:18:34.718Z,96342.55
2018-01-31T23:21:05.770Z,96341.49
2018-01-31T23:23:36.782Z,96331.50
2018-01-31T23:26:07.903Z,96329.14
2018-01-31T23:28:38.930Z,96329.79
2018-01-31T23:31:10.011Z,96319.95
2018-01-31T23:33:41.044Z,96323.48
2018-01-31T23:36:12.110Z,96322.05
2018-01-31T23:38:43.160Z,96324.70
2018-01-31T23:41:14.297Z,96322.70
2018-01-31T23:43:45.320Z,96327.30
2018-01-31T23:46:16.400Z,96324.54
2018-01-31T23:48:47.453Z,96322.19
2018-01-31T23:51:18.530Z,96313.66
2018-01-31T23:53:49.576Z,96313.41
2018-01-31T23:56:20.656Z,96320.23
2018-01-31T23:58:51.700Z,96301.97
